Terminal Aerodrome Forecast
Issued by NWS Twin Cities, MN

Home | Current Version | Previous Version | Graphics & Text | Print | Product List | Glossary On
Versions: 1 2 3 4 5 6 7 8 9 10 11 12 13 14 15 16 17 18 19
000
FTUS43 KMPX 232341
TAFSTC
TAF
KSTC 232341Z 2400/2424 30009KT P6SM FEW025 SCT050
      TEMPO 2408/2412 5SM BR BKN050
     FM241600 28005KT P6SM OVC020=

USA.gov is the U.S. government's official web portal to all federal, state and local government web resources and services.